Ripon, Wisconsin
Current Conditions -  °F | °C
As of 8:53 AM on Thursday 23 Oct 2014 (Local Time) from KOSH Reporting Station
Clear Clear  
Wind Chill:   Ceiling: Unl
Heat Index:   Visibility: 9mi
Dew Point:   Wind: 6mph
Humidity: 85%   Direction: 170°S
Pressure: 30.14"   Gusts: NA
Location:  43.85°N, 88.84°W
Report Text: KOSH 231353Z 17005KT 9SM CLR 06/03 A3014 RMK AO2 SLP214 T00560033
Loading
Personal Weather Stations






























Interactive Weather Map
Tropical Storm Tracking
New forecast layout! Learn more

10-Day Weather Forecast

Advertisements
Track Severe Weather on mobile